Time;durP1;ratioP1;P1;durP2;ratioP2;P2;SDS_P1;SDS_P2;PMS_P1;PMS_P2;Temp;Humidity;BMP_temperature;BMP_pressure;BME280_temperature;BME280_humidity;BME280_pressure;Samples;Min_cycle;Max_cycle;Signal;HPM_P1;HPM_P2
2022/02/27 00:01:05;;;;;;;22.10;13.98;;;;;;;16.72;34.83;94789.03;4936719;28;99489;-63
2022/02/27 00:03:30;;;;;;;22.95;14.80;;;;;;;16.73;35.16;94793.34;4937001;28;96833;-63
2022/02/27 00:05:56;;;;;;;18.58;13.20;;;;;;;16.70;35.15;94782.38;4937348;28;96867;-68
2022/02/27 00:08:21;;;;;;;18.83;12.13;;;;;;;16.75;35.69;94784.78;4936211;28;97994;-62
2022/02/27 00:10:47;;;;;;;17.45;12.82;;;;;;;16.75;35.47;94787.53;4936941;28;97716;-59
2022/02/27 00:13:13;;;;;;;19.00;11.60;;;;;;;16.71;34.81;94775.78;4937104;28;96635;-60
2022/02/27 00:15:39;;;;;;;16.23;10.93;;;;;;;16.70;34.66;94774.19;4936795;28;96853;-62
2022/02/27 00:18:04;;;;;;;13.80;10.20;;;;;;;16.74;34.46;94785.94;4936137;28;100440;-61
2022/02/27 00:20:30;;;;;;;12.77;9.95;;;;;;;16.74;34.29;94775.81;4936319;28;99321;-58
2022/02/27 00:22:55;;;;;;;14.07;10.10;;;;;;;16.73;34.47;94770.75;4937600;28;97015;-61
2022/02/27 00:25:21;;;;;;;14.45;10.52;;;;;;;16.73;34.47;94768.78;4936506;28;97223;-57
2022/02/27 00:27:47;;;;;;;17.50;12.45;;;;;;;16.73;34.32;94759.81;4936417;28;99745;-61
2022/02/27 00:30:12;;;;;;;21.02;15.00;;;;;;;16.73;34.44;94752.41;4936088;28;99124;-60
2022/02/27 00:32:39;;;;;;;20.35;14.38;;;;;;;16.70;35.03;94750.44;4936582;28;96854;-61
2022/02/27 00:35:05;;;;;;;20.83;15.45;;;;;;;16.72;34.95;94750.06;4936720;28;96940;-59
2022/02/27 00:37:31;;;;;;;18.27;14.98;;;;;;;16.74;34.56;94750.47;4935824;28;99454;-60
2022/02/27 00:39:56;;;;;;;18.50;13.73;;;;;;;16.75;34.45;94747.38;4936101;28;99540;-61
2022/02/27 00:42:22;;;;;;;17.73;12.75;;;;;;;16.75;34.27;94739.19;4936510;28;96633;-63
2022/02/27 00:44:47;;;;;;;17.15;12.60;;;;;;;16.77;34.42;94747.03;4936829;28;96662;-61
2022/02/27 00:47:13;;;;;;;19.58;14.38;;;;;;;16.74;34.27;94736.84;4935626;28;99507;-62
2022/02/27 00:49:38;;;;;;;21.30;15.65;;;;;;;16.75;34.33;94732.97;4936149;28;97966;-59
2022/02/27 00:52:04;;;;;;;22.33;17.77;;;;;;;16.75;34.39;94716.59;4936776;28;96608;-59
2022/02/27 00:54:30;;;;;;;22.77;18.42;;;;;;;16.73;34.19;94713.47;4936046;28;96910;-62
2022/02/27 00:56:55;;;;;;;19.98;16.33;;;;;;;16.68;34.42;94700.91;4935937;28;99656;-59
2022/02/27 00:59:21;;;;;;;19.42;14.55;;;;;;;16.74;34.37;94712.31;4935907;28;99451;-60
2022/02/27 01:01:46;;;;;;;18.13;14.52;;;;;;;16.74;34.39;94717.75;4936664;28;98089;-61
2022/02/27 01:04:12;;;;;;;16.73;12.50;;;;;;;16.76;34.46;94718.16;4936168;28;96961;-61
2022/02/27 01:06:37;;;;;;;16.92;12.35;;;;;;;16.75;34.59;94722.06;4935380;28;99489;-61
2022/02/27 01:09:03;;;;;;;15.73;11.35;;;;;;;16.75;34.19;94722.06;4936008;28;97740;-63
2022/02/27 01:11:29;;;;;;;20.02;15.02;;;;;;;16.75;34.40;94722.06;4935834;28;96795;-61
2022/02/27 01:13:56;;;;;;;22.52;14.55;;;;;;;16.76;34.32;94729.09;4943974;28;96939;-61
2022/02/27 01:16:22;;;;;;;21.92;16.13;;;;;;;16.79;34.22;94744.69;4954385;28;99358;-63
2022/02/27 01:18:48;;;;;;;22.63;16.45;;;;;;;16.79;34.17;94736.50;4954992;28;97841;-65
2022/02/27 01:21:15;;;;;;;22.05;17.27;;;;;;;16.80;34.30;94740.78;4954912;28;96702;-62
2022/02/27 01:23:44;;;;;;;20.05;15.63;;;;;;;16.77;34.27;94710.75;4954927;28;96903;-62
2022/02/27 01:26:09;;;;;;;20.30;15.25;;;;;;;16.80;34.44;94727.16;4954407;28;99555;-64
2022/02/27 01:28:35;;;;;;;17.85;14.60;;;;;;;16.77;34.31;94730.66;4954594;28;99308;-63
2022/02/27 01:31:00;;;;;;;17.20;12.27;;;;;;;16.81;34.65;94742.38;4955169;28;96816;-62
2022/02/27 01:33:26;;;;;;;13.63;11.07;;;;;;;16.82;34.21;94737.72;4955019;28;96928;-59
2022/02/27 01:35:51;;;;;;;14.00;11.13;;;;;;;16.83;34.37;94725.63;4954819;28;99601;-64
2022/02/27 01:38:17;;;;;;;15.20;11.73;;;;;;;16.82;34.38;94726.78;4954914;28;97282;-62
2022/02/27 01:40:42;;;;;;;12.15;9.40;;;;;;;16.81;34.99;94728.72;4955047;28;96739;-62
2022/02/27 01:43:08;;;;;;;13.20;10.45;;;;;;;16.82;34.76;94722.09;4955302;28;96903;-64
2022/02/27 01:45:34;;;;;;;12.50;9.30;;;;;;;16.80;34.63;94710.78;4953975;28;99264;-63
2022/02/27 01:47:59;;;;;;;12.57;8.13;;;;;;;16.81;34.60;94708.84;4954730;28;98138;-64
2022/02/27 01:50:25;;;;;;;13.38;8.40;;;;;;;16.80;34.79;94708.06;4955083;28;96731;-62
2022/02/27 01:52:50;;;;;;;11.80;8.15;;;;;;;16.79;34.88;94701.03;4955316;28;96886;-67
2022/02/27 01:55:16;;;;;;;10.48;8.15;;;;;;;16.78;34.99;94724.00;4957645;28;99501;-62
2022/02/27 01:57:42;;;;;;;12.70;7.95;;;;;;;16.74;34.89;94706.84;4957779;28;99551;-62
2022/02/27 02:00:08;;;;;;;11.77;9.25;;;;;;;16.79;34.90;94702.97;4958424;28;96891;-66
2022/02/27 02:02:33;;;;;;;10.35;7.72;;;;;;;16.77;34.87;94700.66;4958555;28;97030;-63
2022/02/27 02:04:59;;;;;;;12.07;7.05;;;;;;;16.76;34.70;94696.34;4956635;28;99638;-63
2022/02/27 02:07:24;;;;;;;11.27;8.55;;;;;;;16.75;34.94;94694.78;4955342;28;99327;-65
2022/02/27 02:09:51;;;;;;;12.70;10.02;;;;;;;16.78;34.95;94720.50;4946093;28;98104;-64
2022/02/27 02:12:16;;;;;;;12.52;8.30;;;;;;;16.78;34.70;94731.41;4948268;28;96993;-61
2022/02/27 02:14:41;;;;;;;18.38;13.45;;;;;;;16.75;34.56;94741.16;4938031;28;99188;-61
2022/02/27 02:17:07;;;;;;;18.20;12.60;;;;;;;16.73;34.70;94730.59;4940160;28;98478;-61
2022/02/27 02:19:32;;;;;;;18.17;14.73;;;;;;;16.73;34.52;94708.00;4946146;28;98073;-56
2022/02/27 02:21:59;;;;;;;26.70;22.73;;;;;;;16.72;34.48;94703.69;4943618;28;96849;-59
2022/02/27 02:24:24;;;;;;;20.65;16.95;;;;;;;16.72;34.59;94684.59;4942148;28;98155;-60
2022/02/27 02:26:50;;;;;;;24.33;19.23;;;;;;;16.73;34.34;94686.19;4957143;28;99325;-60
2022/02/27 02:29:20;;;;;;;26.10;20.75;;;;;;;16.74;34.42;94676.84;4951908;28;96641;-58
2022/02/27 02:31:46;;;;;;;25.05;20.30;;;;;;;16.71;34.48;94656.53;4938091;28;96934;-59
2022/02/27 02:34:16;;;;;;;28.85;24.20;;;;;;;16.73;34.57;94664.34;4952446;28;99320;-60
2022/02/27 02:36:42;;;;;;;25.42;18.90;;;;;;;16.72;34.47;94682.66;4956910;28;99644;-60
2022/02/27 02:39:09;;;;;;;21.75;16.48;;;;;;;16.71;34.36;94699.41;4957211;28;96865;-61
2022/02/27 02:41:34;;;;;;;20.60;15.68;;;;;;;16.71;34.60;94707.59;4957324;28;96969;-60
2022/02/27 02:44:00;;;;;;;17.40;15.13;;;;;;;16.72;34.52;94728.25;4956931;28;99652;-61
2022/02/27 02:46:25;;;;;;;18.48;15.07;;;;;;;16.72;34.57;94739.16;4942154;28;98899;-60
2022/02/27 02:48:51;;;;;;;21.25;16.85;;;;;;;16.72;34.69;94769.16;4938036;28;96613;-59
2022/02/27 02:51:16;;;;;;;28.23;20.00;;;;;;;16.73;34.46;94773.47;4938263;28;96891;-60
2022/02/27 02:53:42;;;;;;;22.00;17.75;;;;;;;16.72;34.63;94763.72;4937252;28;99719;-61
2022/02/27 02:56:07;;;;;;;22.33;17.98;;;;;;;16.70;34.68;94764.06;4937487;28;99568;-61
2022/02/27 02:58:33;;;;;;;22.58;17.38;;;;;;;16.72;34.24;94758.25;4937563;28;96604;-59
2022/02/27 03:00:59;;;;;;;19.73;15.48;;;;;;;16.73;34.31;94757.88;4937631;28;96896;-61
2022/02/27 03:03:25;;;;;;;19.25;14.50;;;;;;;16.73;34.55;94746.19;4937434;28;99656;-58
2022/02/27 03:05:50;;;;;;;16.65;12.77;;;;;;;16.73;34.46;94743.47;4937010;28;98462;-62
2022/02/27 03:08:16;;;;;;;15.63;11.55;;;;;;;16.73;34.29;94740.72;4936809;28;96930;-62
2022/02/27 03:10:41;;;;;;;14.82;10.93;;;;;;;16.75;34.81;94749.34;4937202;28;96886;-61
2022/02/27 03:13:07;;;;;;;13.98;10.75;;;;;;;16.74;34.75;94764.13;4936848;28;99618;-60
2022/02/27 03:15:32;;;;;;;14.85;11.25;;;;;;;16.73;34.50;94765.28;4937273;28;99602;-61
2022/02/27 03:17:58;;;;;;;17.15;13.65;;;;;;;16.74;34.41;94766.84;4937741;28;96757;-60
2022/02/27 03:20:23;;;;;;;19.52;15.25;;;;;;;16.72;34.56;94766.44;4937701;28;96954;-61
2022/02/27 03:22:48;;;;;;;22.75;17.90;;;;;;;16.74;34.62;94775.03;4936628;28;99698;-54
2022/02/27 03:25:14;;;;;;;34.13;30.27;;;;;;;16.75;35.43;94776.59;4936413;28;100146;-57
2022/02/27 03:27:40;;;;;;;21.67;17.98;;;;;;;16.75;34.51;94776.59;4937719;28;96823;-60
2022/02/27 03:30:07;;;;;;;22.90;18.90;;;;;;;16.75;34.63;94768.44;4936978;28;96948;-62
2022/02/27 03:32:32;;;;;;;23.38;20.23;;;;;;;16.77;34.72;94757.94;4936879;28;99807;-50
2022/02/27 03:34:58;;;;;;;26.00;21.30;;;;;;;16.76;34.71;94756.34;4936655;28;99414;-58
2022/02/27 03:37:23;;;;;;;23.90;21.33;;;;;;;16.78;34.39;94754.00;4935218;28;96644;-62
2022/02/27 03:39:49;;;;;;;23.55;20.15;;;;;;;16.77;34.34;94757.94;4937095;28;97009;-61
2022/02/27 03:42:15;;;;;;;23.10;19.58;;;;;;;16.78;34.36;94762.19;4940559;28;98551;-61
2022/02/27 03:44:40;;;;;;;20.45;17.05;;;;;;;16.78;34.46;94754.00;4955886;28;99605;-60
2022/02/27 03:47:06;;;;;;;21.45;17.23;;;;;;;16.78;34.40;94743.09;4940996;28;97510;-55
2022/02/27 03:49:31;;;;;;;20.45;17.27;;;;;;;16.62;34.16;94728.91;4937078;28;97025;-59
2022/02/27 03:51:57;;;;;;;25.02;21.23;;;;;;;16.80;35.12;94748.19;4936691;28;98497;-62
2022/02/27 03:54:22;;;;;;;34.05;30.48;;;;;;;16.80;35.67;94751.69;4935971;28;99260;-59
2022/02/27 03:56:48;;;;;;;25.40;21.23;;;;;;;16.79;34.82;94750.13;4936795;28;96766;-59
2022/02/27 03:59:13;;;;;;;24.65;21.80;;;;;;;16.79;34.65;94739.22;4936681;28;96925;-59
2022/02/27 04:01:39;;;;;;;23.60;19.75;;;;;;;16.79;34.60;94738.44;4936321;28;99756;-60
2022/02/27 04:04:04;;;;;;;24.77;20.48;;;;;;;16.76;34.59;94729.09;4936745;28;97312;-60
2022/02/27 04:06:30;;;;;;;26.73;22.45;;;;;;;16.76;34.83;94729.09;4936383;28;96717;-60
2022/02/27 04:08:55;;;;;;;27.70;23.95;;;;;;;16.79;34.44;94727.53;4936013;28;96820;-61
2022/02/27 04:11:21;;;;;;;36.30;31.05;;;;;;;16.80;35.91;94738.06;4935988;28;98730;-59
2022/02/27 04:13:47;;;;;;;28.45;23.98;;;;;;;16.79;34.82;94739.22;4936047;28;99585;-59
2022/02/27 04:16:12;;;;;;;29.67;25.38;;;;;;;16.77;34.60;94741.56;4936021;28;96634;-60
2022/02/27 04:18:38;;;;;;;28.05;23.95;;;;;;;16.81;34.35;94766.91;4936723;28;97599;-59
2022/02/27 04:21:04;;;;;;;27.33;21.98;;;;;;;16.80;34.30;94762.63;4936224;28;97072;-60
2022/02/27 04:23:29;;;;;;;28.67;23.23;;;;;;;16.81;36.12;94757.97;4935849;28;97942;-62
2022/02/27 04:25:55;;;;;;;28.70;22.92;;;;;;;16.81;34.61;94753.28;4935525;28;96620;-61
2022/02/27 04:28:20;;;;;;;28.92;23.80;;;;;;;16.76;34.69;94750.91;4947335;28;96890;-61
2022/02/27 04:30:46;;;;;;;26.67;22.40;;;;;;;16.81;34.65;94758.72;4954831;28;99604;-60
2022/02/27 04:33:11;;;;;;;26.95;21.90;;;;;;;16.75;34.51;94743.88;4955212;28;99316;-62
2022/02/27 04:35:37;;;;;;;27.40;22.00;;;;;;;16.80;34.55;94759.88;4955909;28;97135;-61
2022/02/27 04:38:02;;;;;;;28.25;22.75;;;;;;;16.80;34.55;94761.84;4955179;28;96904;-60
2022/02/27 04:40:27;;;;;;;30.75;24.48;;;;;;;16.79;34.65;94758.31;4954863;28;99927;-54
2022/02/27 04:42:53;;;;;;;29.73;24.95;;;;;;;16.85;34.58;94751.38;4953887;28;98138;-61
2022/02/27 04:45:18;;;;;;;26.20;21.48;;;;;;;16.80;35.10;94740.78;4954922;28;96782;-61
2022/02/27 04:47:44;;;;;;;23.40;19.05;;;;;;;16.83;35.16;94740.03;4955943;28;96900;-58
2022/02/27 04:50:09;;;;;;;20.48;16.45;;;;;;;16.83;35.44;94737.31;4955069;28;99908;-57
2022/02/27 04:52:35;;;;;;;25.13;19.20;;;;;;;16.89;37.73;94733.09;4955009;28;99799;-58
2022/02/27 04:55:00;;;;;;;20.23;13.40;;;;;;;16.93;37.24;94735.09;4955198;28;96698;-59
2022/02/27 04:57:26;;;;;;;18.33;14.27;;;;;;;16.96;36.68;94726.16;4955285;28;96905;-58
2022/02/27 04:59:51;;;;;;;19.83;14.07;;;;;;;16.95;36.28;94728.13;4955092;28;97774;-57
2022/02/27 05:02:17;;;;;;;15.95;12.05;;;;;;;16.93;35.79;94726.91;4954963;28;99873;-60
2022/02/27 05:04:42;;;;;;;15.57;11.48;;;;;;;16.93;35.68;94732.34;4955413;28;96645;-50
2022/02/27 05:07:08;;;;;;;14.02;10.38;;;;;;;16.93;35.72;94721.44;4954557;28;96962;-54
2022/02/27 05:09:35;;;;;;;16.00;10.90;;;;;;;16.93;35.47;94722.25;4954919;28;99455;-56
2022/02/27 05:12:00;;;;;;;13.40;10.55;;;;;;;16.87;35.52;94729.19;4955125;28;97861;-56
2022/02/27 05:14:26;;;;;;;15.45;10.82;;;;;;;16.94;36.32;94734.72;4955360;28;96625;-61
2022/02/27 05:16:52;;;;;;;17.85;12.63;;;;;;;16.97;35.71;94739.47;4955417;28;96906;-58
2022/02/27 05:19:17;;;;;;;14.55;11.43;;;;;;;16.94;35.46;94737.47;4954640;28;99340;-49
2022/02/27 05:22:23;;;;;;;8.13;5.18;;;;;;;16.72;34.18;94733.72;5014060;28;97225;-43
2022/02/27 05:24:48;;;;;;;6.38;5.40;;;;;;;16.58;34.34;94746.00;5013133;28;96893;-43
2022/02/27 05:27:14;;;;;;;7.13;5.40;;;;;;;16.41;35.87;94738.38;5012248;28;99460;-41
2022/02/27 05:29:39;;;;;;;8.05;5.82;;;;;;;16.33;36.65;94761.25;5012114;28;99400;-46
2022/02/27 05:32:05;;;;;;;9.05;5.47;;;;;;;16.27;36.96;94768.97;5012972;28;96652;-43
2022/02/27 05:34:30;;;;;;;6.55;5.03;;;;;;;16.23;37.34;94771.63;5012577;28;96996;-41
2022/02/27 05:36:56;;;;;;;6.38;4.82;;;;;;;16.21;37.64;94759.53;5011712;28;99159;-43
2022/02/27 05:39:21;;;;;;;6.82;4.88;;;;;;;16.18;37.79;94752.88;5011892;28;99909;-42
2022/02/27 05:41:47;;;;;;;4.45;4.05;;;;;;;16.18;38.22;94771.16;5012398;28;96856;-39
2022/02/27 05:44:12;;;;;;;9.30;5.55;;;;;;;15.98;38.24;94774.78;5012638;28;96907;-39
2022/02/27 05:46:38;;;;;;;5.82;4.32;;;;;;;16.07;38.42;94765.56;5012088;28;99833;-39
2022/02/27 05:49:03;;;;;;;7.80;3.88;;;;;;;16.07;38.73;94762.84;5012239;28;99389;-45
2022/02/27 05:51:29;;;;;;;4.72;3.42;;;;;;;16.16;38.52;94757.91;5012622;28;96735;-41
2022/02/27 05:53:54;;;;;;;4.32;3.90;;;;;;;16.15;38.64;94756.34;5012582;28;96897;-44
2022/02/27 05:56:20;;;;;;;4.65;3.67;;;;;;;16.20;38.44;94769.63;5011774;28;99291;-41
2022/02/27 05:58:45;;;;;;;4.55;3.58;;;;;;;16.24;38.44;94775.16;5012196;28;97731;-46
2022/02/27 06:01:11;;;;;;;3.33;3.00;;;;;;;16.28;38.55;94776.75;5012236;28;96601;-39
2022/02/27 06:03:36;;;;;;;3.67;3.38;;;;;;;16.33;38.52;94774.88;5012681;28;97055;-39
2022/02/27 06:06:02;;;;;;;4.88;3.10;;;;;;;16.39;38.48;94770.66;5011668;28;99221;-41
2022/02/27 06:08:27;;;;;;;3.42;3.13;;;;;;;16.40;38.52;94766.78;4999261;28;99170;-41
2022/02/27 06:10:53;;;;;;;3.80;3.13;;;;;;;16.42;38.43;94769.94;4992465;28;96544;-41
2022/02/27 06:13:18;;;;;;;2.90;2.67;;;;;;;16.42;38.45;94778.13;4992323;28;96993;-45
2022/02/27 06:15:43;;;;;;;3.10;2.58;;;;;;;16.42;38.46;94789.03;4989577;28;97924;-40
2022/02/27 06:18:09;;;;;;;4.28;2.97;;;;;;;16.44;38.34;94797.63;4989371;28;99200;-42
2022/02/27 06:20:34;;;;;;;3.15;2.85;;;;;;;16.45;38.41;94796.47;4989220;28;97249;-43
2022/02/27 06:23:00;;;;;;;2.75;2.45;;;;;;;16.44;38.12;94794.91;4990925;28;97366;-41
2022/02/27 06:25:25;;;;;;;3.47;3.15;;;;;;;16.46;38.20;94776.22;4990256;28;98847;-39
2022/02/27 06:27:51;;;;;;;2.78;2.50;;;;;;;16.45;38.25;94759.09;4990483;28;97774;-42
2022/02/27 06:30:18;;;;;;;2.90;2.60;;;;;;;16.43;38.45;94771.50;4991348;28;96669;-41
2022/02/27 06:32:44;;;;;;;2.35;2.15;;;;;;;16.43;38.33;94787.88;4984372;28;96877;-38
2022/02/27 06:35:10;;;;;;;2.97;2.67;;;;;;;16.44;38.22;94784.00;4978192;28;100081;-40
2022/02/27 06:37:36;;;;;;;2.97;2.67;;;;;;;16.45;38.28;94774.66;4977990;28;99615;-40
2022/02/27 06:40:01;;;;;;;2.75;2.55;;;;;;;16.43;38.22;94787.88;4978719;28;97351;-42
2022/02/27 06:42:27;;;;;;;3.10;2.80;;;;;;;16.40;38.22;94783.94;4978633;28;96970;-38
2022/02/27 06:44:52;;;;;;;2.90;2.70;;;;;;;16.40;38.23;94770.31;4977946;28;99283;-41
2022/02/27 06:47:18;;;;;;;2.50;2.30;;;;;;;16.38;38.30;94774.56;4977896;28;99383;-41
2022/02/27 06:49:43;;;;;;;3.38;2.55;;;;;;;16.43;38.17;94790.59;4978552;28;96588;-42
2022/02/27 06:52:09;;;;;;;2.60;2.40;;;;;;;16.40;38.03;94783.94;4978641;28;96897;-40
2022/02/27 06:54:34;;;;;;;2.40;2.05;;;;;;;16.40;38.23;94783.94;4977754;28;99366;-42
2022/02/27 06:57:00;;;;;;;2.38;2.22;;;;;;;16.38;38.40;94785.47;4977706;28;99379;-43
2022/02/27 06:59:25;;;;;;;2.60;2.40;;;;;;;16.39;38.22;94792.47;4978286;28;96733;-40
2022/02/27 07:01:51;;;;;;;2.65;2.45;;;;;;;16.38;38.16;94791.72;4978194;28;96843;-41
2022/02/27 07:04:16;;;;;;;2.60;2.40;;;;;;;16.40;38.16;94783.16;4977712;28;99491;-39
2022/02/27 07:06:41;;;;;;;2.60;2.40;;;;;;;16.33;38.29;94788.50;4977537;28;100087;-42
2022/02/27 07:09:07;;;;;;;3.10;2.78;;;;;;;16.34;38.45;94795.53;4978086;28;96569;-40
2022/02/27 07:11:33;;;;;;;2.50;2.30;;;;;;;16.30;38.39;94796.25;4978231;28;96789;-41
2022/02/27 07:13:58;;;;;;;2.58;2.38;;;;;;;16.38;38.11;94790.91;4977506;28;99556;-41
2022/02/27 07:16:24;;;;;;;2.97;2.55;;;;;;;16.34;38.41;94792.78;4977449;28;99455;-39
2022/02/27 07:18:49;;;;;;;3.20;2.75;;;;;;;16.36;38.52;94793.22;4978095;28;96625;-45
2022/02/27 07:21:16;;;;;;;1.98;1.88;;;;;;;16.38;38.45;94780.00;4977087;28;96940;-45
2022/02/27 07:23:41;;;;;;;2.60;2.40;;;;;;;16.30;38.52;94798.97;4977554;28;99575;-43
2022/02/27 07:26:07;;;;;;;2.80;2.60;;;;;;;16.31;38.66;94791.59;4977320;28;99223;-41
2022/02/27 07:28:32;;;;;;;2.35;2.15;;;;;;;16.29;38.62;94786.50;4977929;28;96765;-41
2022/02/27 07:30:57;;;;;;;2.60;2.40;;;;;;;16.37;38.72;94778.44;4977704;28;96926;-39
2022/02/27 07:33:23;;;;;;;2.72;2.53;;;;;;;16.33;38.58;94783.03;4977552;28;99383;-40
2022/02/27 07:35:49;;;;;;;2.60;2.40;;;;;;;16.29;38.93;94783.78;4977132;28;99621;-41
2022/02/27 07:38:14;;;;;;;2.42;2.22;;;;;;;16.24;39.03;94781.38;4977739;28;96776;-41
2022/02/27 07:40:40;;;;;;;2.63;2.42;;;;;;;16.28;38.84;94787.66;4977670;28;96796;-41
2022/02/27 07:43:05;;;;;;;2.60;2.40;;;;;;;16.24;39.04;94789.53;4977252;28;98579;-40
2022/02/27 07:45:31;;;;;;;2.65;2.45;;;;;;;16.32;39.23;94789.66;4975983;28;99523;-41
2022/02/27 07:47:56;;;;;;;4.68;2.53;;;;;;;16.14;39.18;94799.16;4977542;28;96649;-40
2022/02/27 07:50:21;;;;;;;2.50;2.30;;;;;;;16.16;39.23;94796.06;4977559;28;96946;-39
2022/02/27 07:52:47;;;;;;;2.50;2.30;;;;;;;16.14;39.51;94792.91;4976618;28;99502;-40
2022/02/27 07:55:12;;;;;;;2.45;2.28;;;;;;;16.24;39.31;94786.81;4976996;28;99105;-44
2022/02/27 07:57:38;;;;;;;3.15;2.10;;;;;;;16.28;39.07;94784.94;4977423;28;96659;-42
2022/02/27 08:00:06;;;;;;;1.98;1.88;;;;;;;16.23;39.27;94782.53;4977343;28;96888;-41
2022/02/27 08:02:31;;;;;;;2.75;2.55;;;;;;;16.22;39.39;94782.91;4976536;28;99517;-40
2022/02/27 08:04:57;;;;;;;2.28;2.10;;;;;;;16.25;39.55;94788.38;4976969;28;99515;-43
2022/02/27 08:07:22;;;;;;;2.40;2.20;;;;;;;16.28;39.31;94798.56;4976942;28;96731;-39
2022/02/27 08:09:47;;;;;;;2.08;1.95;;;;;;;16.33;39.27;94804.84;4977334;28;97033;-41
2022/02/27 08:12:13;;;;;;;2.40;2.20;;;;;;;16.30;39.26;94807.16;4976847;28;98006;-39
2022/02/27 08:14:38;;;;;;;2.42;2.22;;;;;;;16.22;39.54;94810.94;4976573;28;99341;-40
2022/02/27 08:17:04;;;;;;;2.70;2.50;;;;;;;16.22;39.61;94815.59;4977057;28;96792;-41
2022/02/27 08:19:29;;;;;;;2.47;2.17;;;;;;;16.20;39.53;94813.22;4976976;28;96861;-41
2022/02/27 08:21:54;;;;;;;2.20;2.00;;;;;;;16.23;39.72;94812.50;4975966;28;99428;-42
2022/02/27 08:24:20;;;;;;;2.28;2.10;;;;;;;16.23;39.73;94809.00;4976578;28;99387;-39
2022/02/27 08:26:45;;;;;;;2.63;2.42;;;;;;;16.13;39.71;94807.69;4976993;28;96590;-39
2022/02/27 08:29:11;;;;;;;2.63;2.42;;;;;;;16.18;39.79;94804.66;4977094;28;96856;-41
2022/02/27 08:31:40;;;;;;;2.42;2.22;;;;;;;16.09;39.88;94795.97;4976368;28;99411;-43
2022/02/27 08:34:06;;;;;;;2.72;2.53;;;;;;;16.14;39.85;94798.38;4976295;28;99236;-41
2022/02/27 08:36:31;;;;;;;2.35;2.17;;;;;;;16.13;39.97;94794.06;4976578;28;96756;-42
2022/02/27 08:38:59;;;;;;;2.25;2.15;;;;;;;16.09;39.92;94782.34;4976876;28;96860;-43
2022/02/27 08:41:26;;;;;;;2.65;2.45;;;;;;;16.09;39.99;94774.16;4976173;28;99411;-41
2022/02/27 08:43:52;;;;;;;2.35;2.15;;;;;;;16.12;40.06;94779.66;4976289;28;99550;-39
2022/02/27 08:46:17;;;;;;;2.67;2.20;;;;;;;16.12;40.11;94773.44;4976897;28;96616;-39
2022/02/27 08:48:42;;;;;;;2.80;2.50;;;;;;;16.05;40.25;94776.81;4976790;28;96905;-41
2022/02/27 08:51:08;;;;;;;2.63;2.22;;;;;;;16.09;40.45;94783.09;4975822;28;99247;-41
2022/02/27 08:53:33;;;;;;;2.60;2.40;;;;;;;16.09;40.33;94779.59;4976174;28;99228;-40
2022/02/27 08:55:59;;;;;;;2.15;1.95;;;;;;;16.04;40.73;94782.66;4976396;28;96609;-40
2022/02/27 08:58:24;;;;;;;2.55;2.35;;;;;;;16.10;40.46;94781.19;4976754;28;96894;-41
2022/02/27 09:00:50;;;;;;;2.15;2.05;;;;;;;16.06;40.78;94781.13;4976415;28;98081;-39
2022/02/27 09:03:15;;;;;;;2.40;2.20;;;;;;;16.05;40.79;94789.66;4976560;28;99261;-43
2022/02/27 09:05:42;;;;;;;2.63;2.03;;;;;;;16.12;40.96;94784.31;4976515;28;96636;-39
2022/02/27 09:08:07;;;;;;;3.45;2.78;;;;;;;16.10;40.95;94781.19;4976223;28;96873;-38
2022/02/27 09:10:33;;;;;;;2.00;1.80;;;;;;;16.07;41.19;94776.47;4975934;28;99340;-41
2022/02/27 09:12:58;;;;;;;2.25;2.10;;;;;;;16.12;41.11;94773.44;4975934;28;99269;-39
2022/02/27 09:15:23;;;;;;;2.13;2.03;;;;;;;15.99;41.09;94760.00;4976317;28;96688;-41
2022/02/27 09:17:50;;;;;;;2.53;2.33;;;;;;;16.16;41.07;94768.81;4976406;28;96904;-44
2022/02/27 09:20:16;;;;;;;2.08;1.90;;;;;;;16.16;41.19;94774.28;4975350;28;99597;-41
2022/02/27 09:22:41;;;;;;;2.40;2.28;;;;;;;16.16;41.09;94771.53;4975852;28;99343;-41
2022/02/27 09:25:07;;;;;;;1.80;1.70;;;;;;;16.15;40.96;94761.78;4975410;28;96668;-44
2022/02/27 09:27:33;;;;;;;2.00;1.90;;;;;;;16.19;41.13;94761.84;4975790;28;96853;-43
2022/02/27 09:29:58;;;;;;;2.33;2.13;;;;;;;16.15;41.35;94768.00;4974905;28;99575;-45
2022/02/27 09:32:24;;;;;;;2.38;2.00;;;;;;;16.16;41.40;94771.53;4974833;28;99299;-41
2022/02/27 09:34:49;;;;;;;2.60;2.30;;;;;;;16.19;41.24;94768.06;4975091;28;96949;-48
2022/02/27 09:37:15;;;;;;;2.30;2.10;;;;;;;16.07;41.63;94760.13;4974989;28;97003;-45
2022/02/27 09:39:40;;;;;;;1.70;1.60;;;;;;;16.11;41.69;94766.41;4974638;28;99451;-40
2022/02/27 09:42:06;;;;;;;1.88;1.77;;;;;;;16.04;41.75;94763.56;4974767;28;98956;-42
2022/02/27 09:44:39;;;;;;;1.80;1.70;;;;;;;15.99;42.34;94770.91;4975242;28;96709;-42
2022/02/27 09:47:12;;;;;;;2.05;1.80;;;;;;;16.03;41.80;94762.78;4975099;28;96883;-40
2022/02/27 09:49:40;;;;;;;2.35;2.15;;;;;;;15.97;41.97;94765.03;4974641;28;99570;-42
2022/02/27 09:52:06;;;;;;;1.90;1.80;;;;;;;16.07;41.86;94768.28;4974947;28;99388;-41
2022/02/27 09:54:33;;;;;;;1.80;1.70;;;;;;;15.98;41.99;94772.06;4975016;28;96816;-46
2022/02/27 09:56:58;;;;;;;1.60;1.50;;;;;;;16.03;42.42;94775.63;4957440;28;96906;-42
2022/02/27 09:59:23;;;;;;;1.98;1.88;;;;;;;16.01;41.92;94775.97;4974386;28;97519;-41
2022/02/27 10:02:03;;;;;;;1.58;1.48;;;;;;;16.02;41.96;94768.59;4974567;28;99340;-42
2022/02/27 10:04:33;;;;;;;1.90;1.80;;;;;;;16.02;41.84;94768.59;4974997;28;96576;-42
2022/02/27 10:06:59;;;;;;;1.83;1.73;;;;;;;15.94;42.05;94756.78;4975261;28;96919;-44
2022/02/27 10:09:24;;;;;;;2.05;1.85;;;;;;;15.96;42.02;94758.00;4977581;28;99300;-38
2022/02/27 10:11:51;;;;;;;2.03;1.85;;;;;;;16.01;41.86;94762.34;4977798;28;98888;-43
2022/02/27 10:14:26;;;;;;;1.90;1.60;;;;;;;15.98;41.95;94761.16;4978216;28;96759;-44
2022/02/27 10:17:01;;;;;;;2.22;1.90;;;;;;;15.97;41.94;94762.31;4978467;28;96903;-42
2022/02/27 10:19:26;;;;;;;1.90;1.80;;;;;;;15.99;42.20;94761.94;4977737;28;99359;-39
2022/02/27 10:21:52;;;;;;;2.10;2.00;;;;;;;15.92;42.04;94759.91;4976154;28;100379;-44
2022/02/27 10:24:18;;;;;;;1.52;1.42;;;;;;;16.06;41.92;94764.00;4977663;28;96678;-43
2022/02/27 10:26:47;;;;;;;2.05;1.83;;;;;;;15.94;42.21;94763.03;4977797;28;96868;-41
2022/02/27 10:29:25;;;;;;;1.80;1.70;;;;;;;15.97;42.09;94767.75;4977443;28;99542;-42
2022/02/27 10:31:55;;;;;;;1.65;1.55;;;;;;;15.92;42.07;94759.91;4977984;28;97774;-41
2022/02/27 10:34:28;;;;;;;3.80;2.10;;;;;;;15.92;42.27;94754.44;4977922;28;96587;-42
2022/02/27 10:36:58;;;;;;;1.60;1.50;;;;;;;15.88;42.18;94752.84;4978013;28;96843;-42
2022/02/27 10:39:33;;;;;;;1.70;1.60;;;;;;;15.88;42.41;94745.44;4977414;28;99395;-43
2022/02/27 10:42:27;;;;;;;1.73;1.63;;;;;;;15.88;42.25;94739.97;4977460;28;99275;-43
2022/02/27 10:44:52;;;;;;;1.60;1.50;;;;;;;15.87;42.43;94751.25;4975795;28;96670;-39
2022/02/27 10:47:18;;;;;;;1.88;1.77;;;;;;;15.84;42.65;94741.84;4977810;28;97024;-41
2022/02/27 10:49:45;;;;;;;1.67;1.58;;;;;;;15.99;42.57;94737.41;4976650;28;99394;-41
2022/02/27 10:52:11;;;;;;;1.70;1.60;;;;;;;15.99;42.35;94732.75;4976980;28;99284;-44
2022/02/27 10:54:40;;;;;;;2.10;1.83;;;;;;;15.97;42.62;94735.06;4977477;28;96911;-43
2022/02/27 10:57:06;;;;;;;1.52;1.42;;;;;;;15.90;42.71;94732.22;4977645;28;96916;-47
2022/02/27 10:59:32;;;;;;;1.55;1.45;;;;;;;16.00;42.43;94733.53;4959618;28;99413;-45
2022/02/27 11:01:58;;;;;;;1.80;1.70;;;;;;;15.99;42.45;94743.66;4977036;28;99149;-44
2022/02/27 11:04:23;;;;;;;1.77;1.67;;;;;;;15.91;42.76;94738.44;4977505;28;96766;-44
2022/02/27 11:06:49;;;;;;;1.73;1.58;;;;;;;15.91;42.91;94730.28;4960271;28;96883;-46
2022/02/27 11:09:14;;;;;;;1.90;1.55;;;;;;;15.89;42.87;94725.22;4975304;28;99420;-43
2022/02/27 11:11:40;;;;;;;1.80;1.70;;;;;;;15.87;42.68;94722.06;4976795;28;98539;-43
2022/02/27 11:14:07;;;;;;;1.58;1.48;;;;;;;15.89;42.81;94722.47;4975872;28;96757;-42
2022/02/27 11:16:32;;;;;;;2.03;1.92;;;;;;;15.90;42.54;94726.78;4977216;28;96615;-45
2022/02/27 11:18:58;;;;;;;2.28;1.73;;;;;;;15.88;42.83;94723.63;4975498;28;99462;-42
2022/02/27 11:21:23;;;;;;;1.70;1.60;;;;;;;15.85;42.59;94722.41;4958647;28;99464;-42